Time;durP1;ratioP1;P1;durP2;ratioP2;P2;SDS_P1;SDS_P2;PMS_P1;PMS_P2;Temp;Humidity;BMP_temperature;BMP_pressure;BME280_temperature;BME280_humidity;BME280_pressure;Samples;Min_cycle;Max_cycle;Signal;HPM_P1;HPM_P2
2023/05/18 00:01:06;;;;;;;19.35;10.18;;;;;;;15.14;64.95;151091.19;5026927;28;20022;-67
2023/05/18 00:03:32;;;;;;;22.98;10.98;;;;;;;15.18;64.40;151100.22;5026887;28;20050;-67
2023/05/18 00:06:03;;;;;;;22.13;10.68;;;;;;;15.14;64.33;151089.91;5026857;28;20084;-68
2023/05/18 00:08:33;;;;;;;20.30;11.20;;;;;;;15.15;64.46;151092.50;5036791;28;20298;-68
2023/05/18 00:11:00;;;;;;;18.55;11.15;;;;;;;15.08;64.63;151075.75;5040781;28;20231;-68
2023/05/18 00:13:25;;;;;;;19.70;11.63;;;;;;;15.07;64.66;151073.16;5027870;28;20040;-69
2023/05/18 00:15:51;;;;;;;21.08;11.10;;;;;;;15.07;64.35;151071.91;5046333;28;20061;-69
2023/05/18 00:18:17;;;;;;;16.45;10.38;;;;;;;14.79;64.80;151002.41;5031446;28;20040;-69
2023/05/18 00:20:43;;;;;;;15.80;10.50;;;;;;;15.04;65.47;151064.19;5034531;28;20041;-69
2023/05/18 00:23:15;;;;;;;17.35;10.07;;;;;;;14.91;64.52;151033.28;5012637;28;20307;-69
2023/05/18 00:25:40;;;;;;;21.42;11.82;;;;;;;14.96;64.74;151046.19;5028776;28;20292;-70
2023/05/18 00:28:06;;;;;;;20.55;10.25;;;;;;;15.01;65.45;151059.00;5028735;28;20038;-68
2023/05/18 00:30:32;;;;;;;22.70;11.60;;;;;;;15.04;65.25;151064.19;5027952;28;20053;-68
2023/05/18 00:32:57;;;;;;;22.35;10.75;;;;;;;14.93;65.78;151038.41;5040062;28;20029;-69
2023/05/18 00:35:23;;;;;;;16.30;9.32;;;;;;;14.87;65.00;151023.00;5037111;28;20030;-69
2023/05/18 00:37:48;;;;;;;18.55;10.88;;;;;;;14.86;65.36;151019.13;5026115;28;20073;-68
2023/05/18 00:40:14;;;;;;;18.67;10.77;;;;;;;14.90;65.33;151030.72;5035772;28;20032;-68
2023/05/18 00:42:40;;;;;;;17.35;10.60;;;;;;;14.85;65.83;151017.88;5026526;28;20026;-68
2023/05/18 00:45:06;;;;;;;22.65;11.57;;;;;;;14.76;65.75;150994.69;5025983;28;20061;-68
2023/05/18 00:47:31;;;;;;;19.75;11.23;;;;;;;14.75;66.47;150993.41;5050390;28;20053;-68
2023/05/18 00:49:57;;;;;;;17.33;11.20;;;;;;;14.61;66.65;150957.34;5039371;28;20022;-69
2023/05/18 00:52:23;;;;;;;19.08;11.77;;;;;;;14.53;66.09;150938.03;5041958;28;20028;-68
2023/05/18 00:54:50;;;;;;;17.88;11.50;;;;;;;14.47;66.45;150923.88;5065336;28;20051;-68
2023/05/18 00:57:17;;;;;;;18.88;11.23;;;;;;;14.52;66.89;150934.19;5032887;28;20049;-69
2023/05/18 00:59:44;;;;;;;19.88;11.43;;;;;;;14.60;67.25;150956.03;5036190;28;20048;-68
2023/05/18 01:02:10;;;;;;;20.30;11.65;;;;;;;14.62;67.32;150961.25;5038876;28;20044;-68
2023/05/18 01:04:36;;;;;;;20.88;11.85;;;;;;;14.64;66.59;150966.38;5027845;28;20026;-70
2023/05/18 01:07:05;;;;;;;19.38;11.25;;;;;;;14.63;66.99;150963.78;5045856;28;20099;-70
2023/05/18 01:09:32;;;;;;;17.52;11.60;;;;;;;14.54;67.51;150940.63;5027422;28;20029;-69
2023/05/18 01:12:20;;;;;;;16.85;11.93;;;;;;;14.30;67.21;150881.44;5038682;28;20029;-71
2023/05/18 01:14:58;;;;;;;17.60;11.43;;;;;;;14.39;67.24;150902.03;5033650;28;20025;-69
2023/05/18 01:17:49;;;;;;;21.35;11.70;;;;;;;14.53;67.88;150936.75;5034069;28;20418;-69
2023/05/18 01:20:32;;;;;;;20.65;11.77;;;;;;;14.50;67.91;150930.31;5038080;28;20050;-69
2023/05/18 01:23:24;;;;;;;19.17;11.75;;;;;;;14.54;67.19;150940.63;5030531;28;20033;-70
2023/05/18 01:26:15;;;;;;;20.20;12.10;;;;;;;14.45;67.23;150917.44;5041298;28;20307;-71
2023/05/18 01:28:45;;;;;;;16.60;12.10;;;;;;;14.24;67.32;150866.03;5010395;28;20056;-69
2023/05/18 01:31:12;;;;;;;17.52;11.65;;;;;;;14.47;67.66;150922.63;5045157;28;20286;-69
2023/05/18 01:33:38;;;;;;;20.98;12.02;;;;;;;14.52;67.33;150935.44;5008580;28;20045;-70
2023/05/18 01:36:03;;;;;;;16.30;11.23;;;;;;;14.52;67.24;150935.44;5025044;28;20026;-70
2023/05/18 01:38:49;;;;;;;19.38;12.27;;;;;;;14.51;67.66;150932.91;5025499;28;20314;-72
2023/05/18 01:41:26;;;;;;;18.15;11.95;;;;;;;14.50;67.96;150930.31;5019686;28;20334;-69
2023/05/18 01:44:08;;;;;;;16.90;11.80;;;;;;;14.41;68.01;150908.47;5024855;28;20034;-69
2023/05/18 01:46:35;;;;;;;20.50;11.98;;;;;;;14.14;67.50;150840.31;5025004;28;20096;-69
2023/05/18 01:49:27;;;;;;;20.15;12.50;;;;;;;14.48;68.60;150926.47;5007403;28;20030;-70
2023/05/18 01:51:55;;;;;;;18.67;12.27;;;;;;;14.43;67.95;150912.31;4998083;28;20041;-71
2023/05/18 01:54:23;;;;;;;17.02;11.20;;;;;;;14.54;68.22;150940.63;5044708;28;20337;-71
2023/05/18 01:56:51;;;;;;;22.77;12.50;;;;;;;14.45;68.65;150917.44;5032330;28;20042;-69
2023/05/18 01:59:17;;;;;;;19.77;11.85;;;;;;;14.54;68.65;150940.63;5031993;28;20030;-68
2023/05/18 02:01:44;;;;;;;20.10;12.38;;;;;;;14.56;68.31;150945.75;5041499;28;20033;-69
2023/05/18 02:04:09;;;;;;;22.55;12.57;;;;;;;14.58;68.27;150950.91;5024832;28;20045;-70
2023/05/18 02:06:36;;;;;;;23.83;12.90;;;;;;;14.55;69.52;150943.22;5041732;28;20226;-69
2023/05/18 02:09:05;;;;;;;19.52;11.90;;;;;;;14.56;69.51;150945.75;5031109;28;20257;-70
2023/05/18 02:11:31;;;;;;;22.08;13.15;;;;;;;14.48;69.27;150925.19;5033519;28;20028;-71
2023/05/18 02:13:57;;;;;;;23.50;13.57;;;;;;;14.47;68.63;150922.63;5039662;28;20093;-71
2023/05/18 02:16:22;;;;;;;19.42;12.38;;;;;;;14.35;69.00;150891.72;5006861;28;20282;-73
2023/05/18 02:18:48;;;;;;;19.23;12.30;;;;;;;14.64;69.22;150966.38;5023877;28;20025;-72
2023/05/18 02:21:13;;;;;;;19.02;13.10;;;;;;;14.67;69.05;150974.09;5024048;28;20040;-70
2023/05/18 02:23:40;;;;;;;19.65;12.63;;;;;;;14.69;69.48;150976.69;5032888;28;20029;-70
2023/05/18 02:26:06;;;;;;;19.75;12.68;;;;;;;14.07;69.15;150823.59;5024098;28;20068;-72
2023/05/18 02:28:31;;;;;;;27.23;13.70;;;;;;;14.74;68.87;150989.56;5042825;28;20048;-71
2023/05/18 02:31:05;;;;;;;15.73;11.88;;;;;;;14.76;69.80;150994.69;5006687;28;20072;-67
2023/05/18 02:33:35;;;;;;;26.65;13.60;;;;;;;14.85;69.15;151017.88;5023922;28;20026;-67
2023/05/18 02:36:02;;;;;;;24.77;13.63;;;;;;;14.86;69.57;151019.13;5036804;28;20109;-66
2023/05/18 02:38:27;;;;;;;21.85;13.05;;;;;;;14.99;68.72;151052.56;5035145;28;20089;-68
2023/05/18 02:40:53;;;;;;;21.80;12.45;;;;;;;15.03;68.80;151062.88;5034947;28;20037;-70
2023/05/18 02:43:18;;;;;;;16.55;12.07;;;;;;;15.11;69.41;151082.19;5006243;28;20084;-70
2023/05/18 02:45:44;;;;;;;19.60;12.80;;;;;;;15.18;69.05;151101.47;5040577;28;20053;-70
2023/05/18 02:48:10;;;;;;;19.38;13.35;;;;;;;15.23;68.85;151111.78;5028784;28;20034;-71
2023/05/18 02:50:35;;;;;;;20.98;12.35;;;;;;;15.29;68.48;151128.53;5032763;28;20180;-69
2023/05/18 02:53:01;;;;;;;19.42;12.48;;;;;;;15.38;68.59;151150.41;5025587;28;20163;-68
2023/05/18 02:55:27;;;;;;;22.13;13.10;;;;;;;15.50;67.92;151180.00;5043258;28;20092;-68
2023/05/18 02:57:55;;;;;;;23.52;13.45;;;;;;;15.50;67.53;151181.25;5023470;28;20258;-69
2023/05/18 03:00:22;;;;;;;20.13;14.32;;;;;;;15.61;67.29;151207.03;5023378;28;20037;-67
2023/05/18 03:02:49;;;;;;;25.83;14.63;;;;;;;15.60;66.77;151204.44;5031885;28;20033;-68
2023/05/18 03:05:22;;;;;;;23.92;14.40;;;;;;;15.70;67.21;151230.19;5043046;28;20040;-67
2023/05/18 03:07:51;;;;;;;27.38;14.10;;;;;;;15.84;66.00;151265.00;5056937;28;20120;-70
2023/05/18 03:10:18;;;;;;;24.67;14.68;;;;;;;15.91;66.50;151283.03;5005687;28;20222;-66
2023/05/18 03:12:44;;;;;;;24.25;14.48;;;;;;;15.91;66.44;151281.75;5041329;28;20033;-68
2023/05/18 03:15:10;;;;;;;30.50;14.68;;;;;;;16.07;66.35;151321.66;5028906;28;20373;-68
2023/05/18 03:17:36;;;;;;;26.23;14.20;;;;;;;16.18;64.71;151350.00;5032162;28;20033;-70
2023/05/18 03:20:03;;;;;;;24.00;14.95;;;;;;;16.15;66.06;151342.28;5037697;28;20025;-69
2023/05/18 03:22:29;;;;;;;24.33;14.55;;;;;;;16.34;65.61;151391.19;5022994;28;20048;-68
2023/05/18 03:24:55;;;;;;;30.17;15.35;;;;;;;16.42;65.52;151410.53;5042499;28;20318;-68
2023/05/18 03:27:24;;;;;;;29.00;15.25;;;;;;;16.47;65.11;151422.09;5027529;28;20033;-68
2023/05/18 03:29:51;;;;;;;23.92;14.27;;;;;;;16.53;65.08;151437.56;5024527;28;20071;-68
2023/05/18 03:32:20;;;;;;;22.77;13.95;;;;;;;16.64;63.63;151465.91;5036641;28;20026;-69
2023/05/18 03:34:49;;;;;;;20.25;13.00;;;;;;;16.76;63.28;151494.22;5023007;28;20033;-68
2023/05/18 03:37:16;;;;;;;22.77;13.75;;;;;;;16.81;63.93;151508.41;5023187;28;20037;-68
2023/05/18 03:39:41;;;;;;;19.48;13.30;;;;;;;16.85;63.04;151518.72;5035534;28;20038;-69
2023/05/18 03:42:07;;;;;;;24.70;13.63;;;;;;;16.97;62.06;151548.38;5022892;28;20037;-68
2023/05/18 03:44:33;;;;;;;24.80;14.20;;;;;;;17.11;61.77;151581.91;5013972;28;20821;-68
2023/05/18 03:46:58;;;;;;;21.38;13.20;;;;;;;17.20;62.85;151605.09;5051742;28;20030;-68
2023/05/18 03:49:24;;;;;;;27.35;14.50;;;;;;;17.27;62.88;151623.13;5042561;28;20029;-68
2023/05/18 03:51:49;;;;;;;32.20;15.00;;;;;;;17.20;63.37;151606.41;5030639;28;20070;-69
2023/05/18 03:54:15;;;;;;;25.25;14.55;;;;;;;17.45;61.32;151667.00;5062667;28;20043;-68
2023/05/18 03:56:41;;;;;;;25.10;14.55;;;;;;;17.53;61.83;151687.56;5052776;28;20099;-69
2023/05/18 03:59:06;;;;;;;22.00;14.52;;;;;;;17.58;61.59;151701.75;5037552;28;20130;-69
2023/05/18 04:01:33;;;;;;;22.15;13.73;;;;;;;17.72;60.46;151736.56;5005759;28;20214;-69
2023/05/18 04:04:00;;;;;;;20.15;12.88;;;;;;;17.89;59.68;151777.84;5042687;28;20025;-69
2023/05/18 04:06:26;;;;;;;21.35;12.70;;;;;;;18.09;58.36;151828.19;5021459;28;20331;-68
2023/05/18 04:08:52;;;;;;;18.45;12.35;;;;;;;18.22;56.64;151861.69;5023094;28;20137;-69
2023/05/18 04:11:18;;;;;;;17.90;12.30;;;;;;;18.27;58.11;151873.28;5021990;28;20061;-71
2023/05/18 04:13:43;;;;;;;18.95;12.63;;;;;;;18.34;57.44;151890.06;5033503;28;20038;-70
2023/05/18 04:16:12;;;;;;;22.83;12.50;;;;;;;18.39;56.72;151902.97;5042450;28;20037;-70
2023/05/18 04:18:41;;;;;;;19.30;12.82;;;;;;;18.44;56.18;151915.84;5025446;28;20072;-68
2023/05/18 04:21:08;;;;;;;22.98;12.82;;;;;;;18.54;58.11;151941.69;5035450;28;20137;-71
2023/05/18 04:23:37;;;;;;;22.00;12.73;;;;;;;18.58;57.07;151950.69;5033902;28;20045;-70
2023/05/18 04:26:07;;;;;;;21.17;12.55;;;;;;;18.63;56.23;151964.88;5027979;28;20030;-70
2023/05/18 04:28:33;;;;;;;21.83;12.90;;;;;;;18.71;56.38;151984.25;5042362;28;20089;-69
2023/05/18 04:31:00;;;;;;;19.58;11.93;;;;;;;18.76;54.80;151997.13;5024839;28;20036;-69
2023/05/18 04:33:28;;;;;;;18.05;12.00;;;;;;;18.83;55.52;152013.91;5041143;28;20286;-67
2023/05/18 04:35:57;;;;;;;20.63;11.30;;;;;;;18.87;54.78;152024.28;5034477;28;20069;-67
2023/05/18 04:38:24;;;;;;;18.63;11.50;;;;;;;19.01;54.49;152059.16;5025975;28;20034;-70
2023/05/18 04:40:50;;;;;;;15.27;11.35;;;;;;;19.16;53.55;152095.28;5038127;28;20048;-71
2023/05/18 04:43:19;;;;;;;18.27;11.32;;;;;;;19.19;52.62;152103.00;5026243;28;20226;-71
2023/05/18 04:45:45;;;;;;;17.27;10.00;;;;;;;19.31;52.71;152135.28;5024474;28;20033;-71
2023/05/18 04:48:13;;;;;;;15.95;10.07;;;;;;;19.48;52.39;152177.84;5039112;28;20092;-71
2023/05/18 04:50:39;;;;;;;17.55;10.32;;;;;;;19.72;51.50;152235.94;5045342;28;20029;-71
2023/05/18 04:53:07;;;;;;;20.58;10.07;;;;;;;19.82;50.40;152263.13;5030726;28;20041;-70
2023/05/18 04:55:33;;;;;;;17.92;10.07;;;;;;;19.87;51.00;152273.44;5025499;28;20378;-68
2023/05/18 04:58:00;;;;;;;13.90;9.50;;;;;;;20.12;48.92;152338.00;5045100;28;20104;-68
2023/05/18 05:00:28;;;;;;;15.80;8.68;;;;;;;20.42;49.68;152412.91;5030153;28;20030;-68
2023/05/18 05:02:54;;;;;;;17.40;9.50;;;;;;;20.45;48.51;152420.66;5036643;28;20025;-68
2023/05/18 05:05:21;;;;;;;18.55;9.15;;;;;;;20.46;48.35;152423.19;5039088;28;20050;-66
2023/05/18 05:07:52;;;;;;;17.35;8.63;;;;;;;20.66;48.49;152472.31;5026643;28;20083;-71
2023/05/18 05:10:19;;;;;;;13.73;8.53;;;;;;;20.79;48.49;152505.97;5027921;28;20029;-68
2023/05/18 05:12:45;;;;;;;15.50;8.25;;;;;;;20.91;47.39;152534.34;5027454;28;20053;-67
2023/05/18 05:15:11;;;;;;;11.95;7.90;;;;;;;21.15;47.10;152596.41;5038538;28;20115;-67
2023/05/18 05:17:36;;;;;;;14.32;8.52;;;;;;;21.48;46.26;152677.81;5044420;28;20401;-68
2023/05/18 05:20:03;;;;;;;19.48;8.45;;;;;;;21.63;45.71;152716.59;5041192;28;20029;-69
2023/05/18 05:22:29;;;;;;;13.90;8.10;;;;;;;21.43;44.70;152664.88;5025643;28;20030;-68
2023/05/18 05:24:55;;;;;;;15.70;8.50;;;;;;;21.23;45.44;152615.75;5025148;28;20022;-68
2023/05/18 05:27:21;;;;;;;17.08;8.38;;;;;;;21.81;44.65;152761.88;5039590;28;20063;-67
2023/05/18 05:29:49;;;;;;;12.30;7.45;;;;;;;21.94;44.37;152794.19;5019135;28;20247;-67
2023/05/18 05:32:15;;;;;;;11.80;7.93;;;;;;;22.26;44.21;152874.38;5039750;28;20089;-68
2023/05/18 05:34:45;;;;;;;14.55;7.43;;;;;;;22.42;44.12;152914.50;5025406;28;20065;-68
2023/05/18 05:37:11;;;;;;;16.58;8.18;;;;;;;22.48;42.74;152928.75;5035364;28;20048;-67
2023/05/18 05:39:37;;;;;;;16.05;7.50;;;;;;;22.57;42.97;152953.31;5037346;28;20033;-66
2023/05/18 05:42:03;;;;;;;11.10;7.38;;;;;;;22.48;43.22;152928.75;5052311;28;20226;-67
2023/05/18 05:44:28;;;;;;;14.05;7.40;;;;;;;22.65;42.78;152971.44;5028370;28;20101;-66
2023/05/18 05:46:54;;;;;;;13.57;8.05;;;;;;;22.74;42.33;152994.69;5028045;28;20085;-65
2023/05/18 05:49:20;;;;;;;16.10;8.05;;;;;;;22.79;43.32;153007.63;5009286;28;20041;-67
2023/05/18 05:51:45;;;;;;;18.52;7.82;;;;;;;22.77;43.32;153002.44;5042788;28;20025;-64
2023/05/18 05:54:11;;;;;;;18.45;7.40;;;;;;;22.73;41.80;152992.09;5044795;28;20056;-65
2023/05/18 05:56:36;;;;;;;14.10;7.80;;;;;;;22.95;41.80;153047.72;5036928;28;20129;-66
2023/05/18 05:59:02;;;;;;;14.50;7.30;;;;;;;22.70;40.22;152984.31;5029075;28;20025;-67
2023/05/18 06:01:27;;;;;;;15.32;7.03;;;;;;;22.90;41.54;153034.78;5044208;28;20305;-68
2023/05/18 06:03:53;;;;;;;11.20;6.70;;;;;;;22.96;41.47;153049.00;5026743;28;20037;-66
2023/05/18 06:06:20;;;;;;;14.25;7.22;;;;;;;22.99;41.49;153056.75;5047965;28;20033;-67
2023/05/18 06:08:46;;;;;;;11.13;6.55;;;;;;;23.02;40.18;153064.56;5043783;28;20033;-64
2023/05/18 06:11:11;;;;;;;14.10;6.50;;;;;;;23.11;40.52;153087.88;5038397;28;20026;-64
2023/05/18 06:13:37;;;;;;;9.30;6.40;;;;;;;23.14;40.70;153095.63;5006669;28;20024;-65
2023/05/18 06:16:03;;;;;;;11.13;6.53;;;;;;;23.20;40.48;153109.88;5024188;28;20028;-65
2023/05/18 06:18:28;;;;;;;15.15;6.30;;;;;;;23.21;39.27;153112.47;5024193;28;20030;-64
2023/05/18 06:20:54;;;;;;;10.80;6.35;;;;;;;23.19;38.56;153107.31;5034281;28;20290;-65
2023/05/18 06:23:21;;;;;;;13.77;6.72;;;;;;;23.25;39.13;153124.09;5038602;28;20026;-68
2023/05/18 06:25:48;;;;;;;10.70;6.25;;;;;;;23.32;38.45;153139.66;5028443;28;20045;-65
2023/05/18 06:28:14;;;;;;;10.18;6.28;;;;;;;23.33;36.88;153143.53;5026231;28;20025;-64
2023/05/18 06:30:40;;;;;;;7.60;6.38;;;;;;;23.43;38.46;153168.13;5027454;28;20029;-64
2023/05/18 06:33:06;;;;;;;10.38;6.18;;;;;;;23.55;38.68;153197.88;5035303;28;20025;-65
2023/05/18 06:35:32;;;;;;;9.90;5.68;;;;;;;23.50;37.05;153184.91;5035682;28;20042;-65
2023/05/18 06:37:58;;;;;;;11.40;5.72;;;;;;;23.57;37.95;153203.03;5023598;28;20214;-65
2023/05/18 06:40:23;;;;;;;7.03;5.40;;;;;;;23.71;38.57;153239.28;5034420;28;20025;-64
2023/05/18 06:42:49;;;;;;;9.18;5.20;;;;;;;23.60;37.57;153212.13;5026009;28;20037;-66
2023/05/18 06:45:14;;;;;;;11.32;6.22;;;;;;;23.57;36.58;153204.38;5036006;28;20041;-63
2023/05/18 06:47:41;;;;;;;10.45;5.80;;;;;;;23.67;37.42;153227.63;5035247;28;20034;-65
2023/05/18 06:50:08;;;;;;;8.18;5.75;;;;;;;23.69;36.60;153232.84;5026793;28;20049;-66
2023/05/18 06:52:33;;;;;;;9.63;5.70;;;;;;;23.86;37.66;153275.56;5042911;28;20033;-65
2023/05/18 06:55:00;;;;;;;9.80;5.78;;;;;;;23.90;37.45;153287.25;5043299;28;20022;-65
2023/05/18 06:57:26;;;;;;;12.40;6.13;;;;;;;23.78;34.88;153256.13;5029082;28;20318;-65
2023/05/18 06:59:52;;;;;;;8.40;5.15;;;;;;;23.84;35.26;153271.63;5028761;28;20030;-64
2023/05/18 07:02:21;;;;;;;8.80;5.88;;;;;;;23.98;35.60;153305.38;5031446;28;20037;-63
2023/05/18 07:04:47;;;;;;;9.32;5.45;;;;;;;23.81;34.11;153262.59;5050448;28;20032;-66
2023/05/18 07:07:14;;;;;;;7.40;4.65;;;;;;;23.98;35.54;153306.66;5045701;28;20057;-65
2023/05/18 07:09:42;;;;;;;8.10;4.72;;;;;;;24.15;35.69;153349.38;5030033;28;20353;-65
2023/05/18 07:12:07;;;;;;;8.40;4.95;;;;;;;24.20;34.43;153361.00;5023500;28;20053;-66
2023/05/18 07:14:33;;;;;;;8.35;5.40;;;;;;;24.16;34.13;153351.97;5039354;28;20317;-65
2023/05/18 07:16:59;;;;;;;5.80;5.20;;;;;;;24.24;35.16;153371.38;5033150;28;20320;-66
2023/05/18 07:19:25;;;;;;;7.93;5.15;;;;;;;24.32;36.08;153390.81;5021741;28;20037;-66
2023/05/18 07:21:50;;;;;;;8.50;5.22;;;;;;;24.05;33.42;153323.47;5035770;28;20036;-64
2023/05/18 07:24:16;;;;;;;6.85;4.57;;;;;;;24.05;33.74;153323.47;5037985;28;20088;-66
2023/05/18 07:26:42;;;;;;;8.05;4.68;;;;;;;24.17;34.01;153354.56;5034629;28;20025;-65
2023/05/18 07:29:07;;;;;;;7.22;4.60;;;;;;;24.19;32.59;153358.47;5008368;28;20140;-64
2023/05/18 07:31:37;;;;;;;7.80;4.53;;;;;;;24.24;34.17;153372.69;5042934;28;20194;-66
2023/05/18 07:34:03;;;;;;;7.07;5.05;;;;;;;24.20;34.25;153362.34;5031948;28;20076;-63
2023/05/18 07:36:28;;;;;;;7.80;5.43;;;;;;;24.28;33.07;153383.06;5042651;28;20033;-65
2023/05/18 07:38:56;;;;;;;6.43;4.45;;;;;;;24.38;34.13;153406.34;5040559;28;20025;-65
2023/05/18 07:41:22;;;;;;;8.43;4.97;;;;;;;24.26;32.95;153377.84;5029023;28;20052;-65
2023/05/18 07:43:48;;;;;;;10.02;5.00;;;;;;;24.29;32.88;153384.34;5042226;28;20345;-65
2023/05/18 07:46:14;;;;;;;7.43;5.70;;;;;;;24.37;33.45;153405.06;5022805;28;20030;-66
2023/05/18 07:48:40;;;;;;;6.15;5.10;;;;;;;24.26;32.00;153376.56;5036850;28;20044;-67
2023/05/18 07:51:06;;;;;;;8.52;5.03;;;;;;;24.47;33.13;153430.94;5021627;28;20030;-68
2023/05/18 07:53:31;;;;;;;6.85;5.10;;;;;;;24.50;32.63;153437.44;5057382;28;20025;-68
2023/05/18 07:55:57;;;;;;;7.40;4.47;;;;;;;24.44;32.12;153423.19;5059799;28;20025;-69
2023/05/18 07:58:22;;;;;;;9.90;4.75;;;;;;;24.37;31.83;153403.75;5022737;28;20068;-68
2023/05/18 08:00:48;;;;;;;10.13;5.30;;;;;;;24.49;32.50;153434.84;5021515;28;20033;-66
2023/05/18 08:03:14;;;;;;;11.23;5.35;;;;;;;24.64;34.19;153472.41;5013356;28;20109;-66
2023/05/18 08:05:39;;;;;;;11.38;5.68;;;;;;;24.70;33.09;153488.00;5031595;28;20045;-66
2023/05/18 08:08:05;;;;;;;9.32;5.43;;;;;;;24.63;32.25;153471.13;5044168;28;20132;-67
2023/05/18 08:10:30;;;;;;;9.07;5.35;;;;;;;24.85;33.42;153524.25;5026762;28;20030;-68
2023/05/18 08:12:56;;;;;;;6.88;5.43;;;;;;;24.79;31.96;153510.00;5042947;28;20089;-67
2023/05/18 08:15:21;;;;;;;7.15;5.00;;;;;;;25.04;33.15;153572.16;5015423;28;20029;-69
2023/05/18 08:17:47;;;;;;;7.75;5.00;;;;;;;25.06;32.47;153578.66;5033432;28;20021;-69
2023/05/18 08:20:13;;;;;;;9.55;5.45;;;;;;;25.21;33.47;153616.25;5041929;28;20097;-69
2023/05/18 08:22:38;;;;;;;9.82;5.38;;;;;;;25.19;32.38;153611.03;5025590;28;20235;-68
2023/05/18 08:25:04;;;;;;;8.38;4.85;;;;;;;25.35;32.57;153649.97;5026090;28;20026;-70
2023/05/18 08:27:30;;;;;;;6.15;4.82;;;;;;;25.25;31.63;153626.56;5040132;28;20080;-67
2023/05/18 08:29:55;;;;;;;6.00;4.65;;;;;;;25.39;31.97;153660.31;5036765;28;20242;-70
2023/05/18 08:32:21;;;;;;;10.57;5.00;;;;;;;25.32;32.25;153643.47;5029752;28;20021;-70
2023/05/18 08:34:50;;;;;;;7.55;4.80;;;;;;;25.37;31.60;153655.13;5046100;28;20025;-69
2023/05/18 08:37:15;;;;;;;10.95;5.15;;;;;;;25.32;31.85;153643.47;5008891;28;20037;-69
2023/05/18 08:39:41;;;;;;;7.22;5.22;;;;;;;25.44;31.40;153673.25;5035871;28;20167;-68
2023/05/18 08:42:15;;;;;;;7.30;4.70;;;;;;;25.37;30.96;153655.13;5054146;28;20076;-68
2023/05/18 08:45:11;;;;;;;11.27;4.78;;;;;;;25.54;30.68;153699.22;5038749;28;20084;-70
2023/05/18 08:47:38;;;;;;;9.38;5.03;;;;;;;25.64;31.50;153723.84;5032201;28;20127;-69
2023/05/18 08:50:04;;;;;;;7.13;5.55;;;;;;;25.55;31.49;153701.75;5036635;28;20026;-68
2023/05/18 08:52:35;;;;;;;13.70;6.47;;;;;;;25.31;30.38;153640.81;5028831;28;20218;-70
2023/05/18 08:55:05;;;;;;;7.97;6.32;;;;;;;25.37;30.20;153656.44;5035586;28;20126;-71
2023/05/18 08:57:33;;;;;;;13.05;5.20;;;;;;;25.41;29.30;153666.81;5035862;28;20064;-69
2023/05/18 09:00:02;;;;;;;7.22;4.63;;;;;;;25.70;30.20;153738.09;5032521;28;20032;-67
2023/05/18 09:02:32;;;;;;;8.32;5.07;;;;;;;25.87;31.03;153780.81;5032297;28;20049;-68
2023/05/18 09:04:58;;;;;;;6.15;5.03;;;;;;;25.83;29.32;153771.78;5042981;28;20040;-68
2023/05/18 09:07:26;;;;;;;7.63;5.38;;;;;;;25.84;29.89;153774.38;5029311;28;20060;-68
2023/05/18 09:09:54;;;;;;;6.72;5.18;;;;;;;25.88;29.51;153784.75;5016682;28;20116;-69
2023/05/18 09:12:24;;;;;;;11.50;5.60;;;;;;;25.95;29.41;153802.88;5028568;28;20034;-68
2023/05/18 09:14:50;;;;;;;6.18;5.20;;;;;;;25.97;29.76;153808.06;5035117;28;20083;-68
2023/05/18 09:17:16;;;;;;;9.65;7.38;;;;;;;25.95;29.27;153802.88;5031991;28;20053;-70
2023/05/18 09:19:41;;;;;;;7.43;5.50;;;;;;;26.13;28.99;153847.00;5037722;28;20214;-69
2023/05/18 09:22:07;;;;;;;8.43;5.38;;;;;;;26.17;29.45;153858.66;5033921;28;20275;-69
2023/05/18 09:24:33;;;;;;;7.47;5.13;;;;;;;26.17;29.20;153858.66;5042662;28;20101;-69
2023/05/18 09:26:59;;;;;;;7.07;5.32;;;;;;;26.15;29.36;153852.16;5036006;28;20033;-70
2023/05/18 09:29:25;;;;;;;14.52;6.13;;;;;;;26.20;28.99;153863.88;5053176;28;20031;-71
2023/05/18 09:31:52;;;;;;;6.88;4.90;;;;;;;26.26;29.27;153880.69;5044984;28;20029;-70
2023/05/18 09:34:18;;;;;;;4.90;4.32;;;;;;;26.25;27.17;153878.13;5035602;28;20083;-68
2023/05/18 09:36:48;;;;;;;5.57;4.57;;;;;;;26.16;27.61;153854.78;5033740;28;20275;-69
2023/05/18 09:39:14;;;;;;;6.03;4.75;;;;;;;26.30;28.49;153889.78;5043454;28;20037;-68
2023/05/18 09:41:40;;;;;;;11.23;7.60;;;;;;;26.34;28.41;153901.44;5030931;28;20032;-68
2023/05/18 09:44:11;;;;;;;10.20;7.18;;;;;;;26.45;29.44;153927.34;5043136;28;20104;-67
2023/05/18 09:46:39;;;;;;;6.13;5.32;;;;;;;26.48;28.43;153935.13;5025021;28;20037;-67
2023/05/18 09:49:06;;;;;;;5.82;5.32;;;;;;;25.93;27.15;153796.41;5024814;28;20030;-70
2023/05/18 09:51:38;;;;;;;8.52;5.25;;;;;;;26.17;27.59;153857.38;5026663;28;20026;-69
2023/05/18 09:54:08;;;;;;;11.05;6.68;;;;;;;26.20;28.95;153863.88;5064876;28;20056;-70
2023/05/18 09:56:36;;;;;;;6.28;5.43;;;;;;;26.10;29.29;153839.22;5058950;28;20052;-69
2023/05/18 09:59:12;;;;;;;7.53;5.55;;;;;;;26.19;29.34;153862.53;5044450;28;20253;-69
2023/05/18 10:01:59;;;;;;;9.13;5.85;;;;;;;26.35;29.75;153904.03;5044463;28;20057;-68
2023/05/18 10:04:36;;;;;;;7.20;5.40;;;;;;;26.39;29.58;153911.81;5026519;28;20037;-68
2023/05/18 10:07:11;;;;;;;9.25;5.80;;;;;;;26.08;28.31;153835.34;5053888;28;20052;-68
2023/05/18 10:09:41;;;;;;;11.30;5.72;;;;;;;25.83;28.28;153773.03;5051581;28;20028;-67
2023/05/18 10:12:18;;;;;;;6.28;5.28;;;;;;;25.87;29.17;153782.13;5023177;28;20041;-69
2023/05/18 10:14:45;;;;;;;10.57;5.30;;;;;;;25.88;28.42;153783.41;5024365;28;20353;-69
2023/05/18 10:17:15;;;;;;;8.20;5.30;;;;;;;25.86;27.99;153778.25;5024338;28;20057;-68
2023/05/18 10:19:41;;;;;;;12.07;6.25;;;;;;;26.03;28.51;153821.09;5028019;28;20034;-69
2023/05/18 10:22:09;;;;;;;10.77;5.25;;;;;;;25.91;28.99;153792.53;5024252;28;20065;-69
2023/05/18 10:24:41;;;;;;;10.27;5.50;;;;;;;25.91;28.38;153792.53;5037452;28;20523;-69
2023/05/18 10:27:08;;;;;;;10.20;6.05;;;;;;;26.13;29.13;153847.00;5025297;28;20037;-70
2023/05/18 10:29:37;;;;;;;7.03;5.88;;;;;;;26.07;29.31;153831.47;5027661;28;20304;-69
2023/05/18 10:32:04;;;;;;;10.88;6.22;;;;;;;25.89;28.96;153787.31;5040472;28;20096;-71
2023/05/18 10:34:31;;;;;;;10.60;6.40;;;;;;;25.57;28.22;153705.66;5024303;28;20338;-70
2023/05/18 10:37:00;;;;;;;9.52;5.43;;;;;;;25.75;30.07;153751.03;5040389;28;20041;-69
2023/05/18 10:39:27;;;;;;;9.90;7.10;;;;;;;25.84;28.99;153775.66;5034163;28;20057;-70
2023/05/18 10:41:55;;;;;;;10.07;5.60;;;;;;;25.92;29.33;153795.06;5035875;28;20045;-69
2023/05/18 10:44:23;;;;;;;7.25;5.22;;;;;;;25.98;29.01;153810.66;5025882;28;20226;-69
2023/05/18 10:46:49;;;;;;;12.93;5.40;;;;;;;25.88;29.21;153783.41;5043306;28;20048;-70
2023/05/18 10:49:16;;;;;;;8.70;5.45;;;;;;;25.80;29.32;153764.00;5024592;28;20101;-69
2023/05/18 10:51:45;;;;;;;15.15;7.70;;;;;;;25.96;29.84;153805.44;5037829;28;20242;-71
2023/05/18 10:54:13;;;;;;;9.55;5.57;;;;;;;26.04;28.66;153824.97;5043915;28;20041;-70
2023/05/18 10:56:46;;;;;;;6.53;5.38;;;;;;;25.99;28.80;153813.22;5038156;28;20127;-68
2023/05/18 10:59:13;;;;;;;7.00;4.95;;;;;;;26.05;29.69;153827.53;5052012;28;20040;-70
2023/05/18 11:01:40;;;;;;;8.02;5.65;;;;;;;26.16;29.75;153854.78;5027998;28;20021;-69
2023/05/18 11:04:06;;;;;;;7.47;5.80;;;;;;;26.14;28.68;153850.88;5036683;28;20034;-70
2023/05/18 11:06:33;;;;;;;9.13;5.70;;;;;;;25.90;29.15;153788.63;5045008;28;20417;-70
2023/05/18 11:09:00;;;;;;;11.93;5.70;;;;;;;25.49;28.05;153687.50;5016323;28;20082;-70
2023/05/18 11:11:28;;;;;;;9.02;5.28;;;;;;;25.58;28.36;153709.59;5030729;28;20076;-69
2023/05/18 11:14:00;;;;;;;5.68;4.88;;;;;;;25.42;28.55;153669.38;5034978;28;20037;-68
2023/05/18 11:16:35;;;;;;;13.10;6.07;;;;;;;25.30;29.95;153638.25;5029891;28;20033;-68
2023/05/18 11:19:06;;;;;;;9.18;5.40;;;;;;;25.06;29.30;153577.38;5037082;28;20123;-68